Brive-Souillac

METAR LFSL TAF LFSL
-5 °C
°C
-
°C
21m
Age
09:51:26
LT
08:51
UTC
0 ft

1,000

2,000

3,000

4,000

5,000

SCT 100
IFR
<?= Yii::t('app', 'Wind direction') ?> <?= Yii::t('app', 'of'); ?>
VAR
17:58
Sunset
100%
Humidity
Wind shear
Closed/Snow
RWY visual range
RWY condition
Vert. visibility
Min. visibility
CAVOK
Trend
Correction
Special report
1030 hPa
QNH
METAR LFSL 300830Z AUTO 00000KT 1800 BR SCT001 M05/M05 Q1030 BECMG 9999 NSW
Mist
0 kt
0 kt
09:00
LIFR
2 kt
10:00
VFR
2 kt
11:00
VFR
2 kt
12:00
VFR
2 kt
13:00
VFR
2 kt
14:00
VFR
2 kt
15:00
VFR
2 kt
1.8 km
Visibility
None
Ceiling
None
Wind
metar-taf.com/LFSL

Metar-Taf.com

Visual decoder

We and third parties follow your internet behavior on our website with cookies. If you continue, we assume you agree with our cookie policy.